MEZ weather

Musina(Messina) Airport
Musina, Limpopo, South Africa

Public forecast

Using degrees Celsius for public forecast. Weather courtesy of forecast.io.

Closest aviation weather report (METAR) to Musina(Messina) Airport

Report is more than 6 hours old.

Closest report is Thohoyandou Airport, 48.6 nm (89.9 km) SSE. Retrieved 2017/10/03 03:53 UTC (3 years ago):

FATH 030353Z 21002KT 9999 BKN020 19/14 Q1021

Closest aviation forecast (TAF) to Musina(Messina) Airport

Forecast is more than 12 hours old.

Closest forecast is Makhado Air Force Base Airport, 50.9 nm (94.2 km) SSW. Retrieved 2017/06/05 04:55 UTC (3 years ago):

TAF FALM 050300Z 0504/0515 15005KT CAVOK BECMG 0506/0508 09009KT TX23/0513ZTN06/0504Z